Time,TemperatureF,DewpointF,PressureIn,WindDirection,WindDirectionDegrees,WindSpeedMPH,WindSpeedGustMPH,Humidity,HourlyPrecipIn,Conditions,Clouds,dailyrainin,SolarRadiationWatts/m^2,SoftwareType,DateUTC
2013-04-17 00:23:00,66.0,66.0,-100.00,NE,46,2.0,9.0,100,0.00,,,0.00,0.000000,,2013-04-17 10:23:00,
2013-04-17 00:32:00,66.0,66.0,-100.00,NE,46,2.0,9.0,100,0.00,,,0.00,0.000000,,2013-04-17 10:32:00,
2013-04-17 00:42:00,66.0,66.0,-100.00,NE,46,2.0,9.0,100,0.00,,,0.00,0.000000,,2013-04-17 10:42:00,
2013-04-17 00:52:00,66.0,66.0,-100.00,NE,46,2.0,9.0,100,0.00,,,0.00,0.000000,,2013-04-17 10:52:00,
2013-04-17 01:22:00,66.0,66.0,-100.00,North,3,2.0,8.0,100,0.00,,,-99.99,0.000000,,2013-04-17 11:22:00,
2013-04-17 01:32:00,66.0,66.0,-100.00,North,3,2.0,8.0,100,0.00,,,-99.99,0.000000,,2013-04-17 11:32:00,
2013-04-17 01:42:00,66.0,66.0,-100.00,North,3,2.0,8.0,100,0.00,,,-99.99,0.000000,,2013-04-17 11:42:00,
2013-04-17 01:52:00,66.0,66.0,-100.00,North,3,2.0,8.0,100,0.00,,,-99.99,0.000000,,2013-04-17 11:52:00,
2013-04-17 02:22:00,64.0,64.0,-100.00,NE,51,3.0,5.0,100,0.00,,,0.00,0.000000,,2013-04-17 12:22:00,
2013-04-17 02:32:00,64.0,64.0,-100.00,NE,51,3.0,5.0,100,0.00,,,0.00,0.000000,,2013-04-17 12:32:00,
2013-04-17 02:42:00,64.0,64.0,-100.00,NE,51,3.0,5.0,100,0.00,,,0.00,0.000000,,2013-04-17 12:42:00,
2013-04-17 02:52:00,64.0,64.0,-100.00,NE,51,3.0,5.0,100,0.00,,,0.00,0.000000,,2013-04-17 12:52:00,
2013-04-17 03:22:00,64.0,64.0,-100.00,WNW,300,1.0,6.0,100,0.00,,,0.00,0.000000,,2013-04-17 13:22:00,
2013-04-17 03:32:00,64.0,64.0,-100.00,WNW,300,1.0,6.0,100,0.00,,,0.00,0.000000,,2013-04-17 13:32:00,
2013-04-17 03:42:00,64.0,64.0,-100.00,WNW,300,1.0,6.0,100,0.00,,,0.00,0.000000,,2013-04-17 13:42:00,
2013-04-17 03:52:00,64.0,64.0,-100.00,WNW,300,1.0,6.0,100,0.00,,,0.00,0.000000,,2013-04-17 13:52:00,
2013-04-17 04:22:00,66.0,66.0,-100.00,SW,236,2.0,5.0,100,0.00,,,0.00,0.000000,,2013-04-17 14:22:00,
2013-04-17 04:32:00,66.0,66.0,-100.00,SW,236,2.0,5.0,100,0.00,,,0.00,0.000000,,2013-04-17 14:32:00,
2013-04-17 04:42:00,66.0,66.0,-100.00,SW,236,2.0,5.0,100,0.00,,,0.00,0.000000,,2013-04-17 14:42:00,
2013-04-17 04:52:00,66.0,66.0,-100.00,SW,236,2.0,5.0,100,0.00,,,0.00,0.000000,,2013-04-17 14:52:00,
2013-04-17 05:22:00,66.0,66.0,-100.00,East,89,2.0,4.0,100,0.00,,,0.00,0.000000,,2013-04-17 15:22:00,
2013-04-17 05:33:00,66.0,66.0,-100.00,East,89,2.0,4.0,100,0.00,,,0.00,0.000000,,2013-04-17 15:33:00,
2013-04-17 05:42:00,66.0,66.0,-100.00,East,89,2.0,4.0,100,0.00,,,0.00,0.000000,,2013-04-17 15:42:00,
2013-04-17 05:52:00,66.0,66.0,-100.00,East,89,2.0,4.0,100,0.00,,,0.00,0.000000,,2013-04-17 15:52:00,
2013-04-17 06:22:00,64.0,64.0,-100.00,ENE,66,2.0,9.0,99,0.00,,,0.00,0.000000,,2013-04-17 16:22:00,
2013-04-17 06:32:00,64.0,64.0,-100.00,ENE,66,2.0,9.0,99,0.00,,,0.00,0.000000,,2013-04-17 16:32:00,
2013-04-17 06:42:00,64.0,64.0,-100.00,ENE,66,2.0,9.0,99,0.00,,,0.00,0.000000,,2013-04-17 16:42:00,
2013-04-17 06:52:00,64.0,64.0,-100.00,ENE,66,2.0,9.0,99,0.00,,,0.00,0.000000,,2013-04-17 16:52:00,
2013-04-17 07:22:00,66.0,65.0,-100.00,SSE,168,2.0,9.0,98,0.00,,,-99.99,28.000000,,2013-04-17 17:22:00,
2013-04-17 07:33:00,66.0,65.0,-100.00,SSE,168,2.0,9.0,98,0.00,,,-99.99,28.000000,,2013-04-17 17:33:00,
2013-04-17 07:42:00,66.0,65.0,-100.00,SSE,168,2.0,9.0,98,0.00,,,-99.99,28.000000,,2013-04-17 17:42:00,
2013-04-17 07:51:00,66.0,65.0,-100.00,SSE,168,2.0,9.0,98,0.00,,,-99.99,28.000000,,2013-04-17 17:51:00,
2013-04-17 08:22:00,74.0,66.0,-100.00,SSE,151,4.0,9.0,77,0.00,,,0.00,277.000000,,2013-04-17 18:22:00,
2013-04-17 08:32:00,74.0,66.0,-100.00,SSE,151,4.0,9.0,77,0.00,,,0.00,277.000000,,2013-04-17 18:32:00,
2013-04-17 08:42:00,74.0,66.0,-100.00,SSE,151,4.0,9.0,77,0.00,,,0.00,277.000000,,2013-04-17 18:42:00,
2013-04-17 08:52:00,74.0,66.0,-100.00,SSE,151,4.0,9.0,77,0.00,,,0.00,277.000000,,2013-04-17 18:52:00,
2013-04-17 09:22:00,74.0,67.0,-100.00,ESE,103,5.0,14.0,79,0.00,,,0.00,328.000000,,2013-04-17 19:22:00,
2013-04-17 09:32:00,74.0,67.0,-100.00,ESE,103,5.0,14.0,79,0.00,,,0.00,328.000000,,2013-04-17 19:32:00,
2013-04-17 09:42:00,74.0,67.0,-100.00,ESE,103,5.0,14.0,79,0.00,,,0.00,328.000000,,2013-04-17 19:42:00,
2013-04-17 09:52:00,74.0,67.0,-100.00,ESE,103,5.0,14.0,79,0.00,,,0.00,328.000000,,2013-04-17 19:52:00,
2013-04-17 10:22:00,76.0,69.0,-100.00,East,100,6.0,17.0,79,0.00,,,0.00,340.000000,,2013-04-17 20:22:00,
2013-04-17 10:32:00,76.0,69.0,-100.00,East,100,6.0,17.0,79,0.00,,,0.00,340.000000,,2013-04-17 20:32:00,
2013-04-17 10:42:00,76.0,69.0,-100.00,East,100,6.0,17.0,79,0.00,,,0.00,340.000000,,2013-04-17 20:42:00,
2013-04-17 10:52:00,76.0,69.0,-100.00,East,100,6.0,17.0,79,0.00,,,0.00,340.000000,,2013-04-17 20:52:00,
2013-04-17 11:22:00,77.0,66.0,-100.00,ESE,121,5.0,16.0,69,0.00,,,0.00,700.000000,,2013-04-17 21:22:00,
2013-04-17 11:32:00,77.0,66.0,-100.00,ESE,121,5.0,16.0,69,0.00,,,0.00,700.000000,,2013-04-17 21:32:00,
2013-04-17 11:42:00,77.0,66.0,-100.00,ESE,121,5.0,16.0,69,0.00,,,0.00,700.000000,,2013-04-17 21:42:00,
2013-04-17 11:53:00,77.0,66.0,-100.00,ESE,121,5.0,16.0,69,0.00,,,0.00,700.000000,,2013-04-17 21:53:00,
2013-04-17 12:22:00,78.0,67.0,-100.00,East,97,10.0,17.0,70,0.00,,,0.00,1121.000000,,2013-04-17 22:22:00,
2013-04-17 12:33:00,78.0,67.0,-100.00,East,97,10.0,17.0,70,0.00,,,0.00,1121.000000,,2013-04-17 22:33:00,
2013-04-17 12:42:00,78.0,67.0,-100.00,East,97,10.0,17.0,70,0.00,,,0.00,1121.000000,,2013-04-17 22:42:00,
2013-04-17 12:52:00,78.0,67.0,-100.00,East,97,10.0,17.0,70,0.00,,,0.00,1121.000000,,2013-04-17 22:52:00,
2013-04-17 13:22:00,78.0,69.0,-100.00,ESE,111,11.0,21.0,74,0.00,,,0.00,1266.000000,,2013-04-17 23:22:00,
2013-04-17 13:32:00,78.0,69.0,-100.00,ESE,111,11.0,21.0,74,0.00,,,0.00,1266.000000,,2013-04-17 23:32:00,
2013-04-17 13:42:00,78.0,69.0,-100.00,ESE,111,11.0,21.0,74,0.00,,,0.00,1266.000000,,2013-04-17 23:42:00,
2013-04-17 13:52:00,78.0,69.0,-100.00,ESE,111,11.0,21.0,74,0.00,,,0.00,1266.000000,,2013-04-17 23:52:00,
2013-04-17 14:22:00,78.0,68.0,-100.00,ENE,75,12.0,23.0,72,0.00,,,0.00,1218.000000,,2013-04-18 00:22:00,
2013-04-17 14:32:00,78.0,68.0,-100.00,ENE,75,12.0,23.0,72,0.00,,,0.00,1218.000000,,2013-04-18 00:32:00,
2013-04-17 14:42:00,78.0,68.0,-100.00,ENE,75,12.0,23.0,72,0.00,,,0.00,1218.000000,,2013-04-18 00:42:00,
2013-04-17 14:52:00,78.0,68.0,-100.00,ENE,75,12.0,23.0,72,0.00,,,0.00,1218.000000,,2013-04-18 00:52:00,
2013-04-17 15:22:00,78.0,68.0,-100.00,East,101,8.0,21.0,71,0.00,,,0.00,881.000000,,2013-04-18 01:22:00,
2013-04-17 15:32:00,78.0,68.0,-100.00,East,101,8.0,21.0,71,0.00,,,0.00,881.000000,,2013-04-18 01:32:00,
2013-04-17 15:42:00,78.0,68.0,-100.00,East,101,8.0,21.0,71,0.00,,,0.00,881.000000,,2013-04-18 01:42:00,
2013-04-17 15:52:00,78.0,68.0,-100.00,East,101,8.0,21.0,71,0.00,,,0.00,881.000000,,2013-04-18 01:52:00,
2013-04-17 16:22:00,75.0,66.0,-100.00,East,87,8.0,20.0,73,0.00,,,0.00,640.000000,,2013-04-18 02:22:00,
2013-04-17 16:32:00,75.0,66.0,-100.00,East,87,8.0,20.0,73,0.00,,,0.00,640.000000,,2013-04-18 02:32:00,
2013-04-17 16:42:00,75.0,66.0,-100.00,East,87,8.0,20.0,73,0.00,,,0.00,640.000000,,2013-04-18 02:42:00,
2013-04-17 16:51:00,75.0,66.0,-100.00,East,87,8.0,20.0,73,0.00,,,0.00,640.000000,,2013-04-18 02:51:00,
2013-04-17 17:22:00,71.0,70.0,-100.00,NE,49,4.0,14.0,96,0.02,,,0.02,304.000000,,2013-04-18 03:22:00,
2013-04-17 17:33:00,71.0,70.0,-100.00,NE,49,4.0,14.0,96,0.02,,,0.02,304.000000,,2013-04-18 03:33:00,
2013-04-17 17:43:00,71.0,70.0,-100.00,NE,49,4.0,14.0,96,0.02,,,0.02,304.000000,,2013-04-18 03:43:00,
2013-04-17 17:53:00,71.0,70.0,-100.00,NE,49,4.0,14.0,96,0.02,,,0.02,304.000000,,2013-04-18 03:53:00,
2013-04-17 18:23:00,70.0,70.0,-100.00,East,83,4.0,11.0,99,0.06,,,0.08,131.000000,,2013-04-18 04:23:00,
2013-04-17 18:33:00,70.0,70.0,-100.00,East,83,4.0,11.0,99,0.06,,,0.08,131.000000,,2013-04-18 04:33:00,
2013-04-17 18:43:00,70.0,70.0,-100.00,East,83,4.0,11.0,99,0.06,,,0.08,131.000000,,2013-04-18 04:43:00,
2013-04-17 18:52:00,70.0,70.0,-100.00,East,83,4.0,11.0,99,0.06,,,0.08,131.000000,,2013-04-18 04:52:00,
2013-04-17 19:22:00,67.0,67.0,-100.00,NNE,30,2.0,8.0,100,0.03,,,0.11,68.000000,,2013-04-18 05:22:00,
2013-04-17 19:32:00,67.0,67.0,-100.00,NNE,30,2.0,8.0,100,0.03,,,0.11,68.000000,,2013-04-18 05:32:00,
2013-04-17 19:42:00,67.0,67.0,-100.00,NNE,30,2.0,8.0,100,0.03,,,0.11,68.000000,,2013-04-18 05:42:00,
2013-04-17 19:52:00,67.0,67.0,-100.00,NNE,30,2.0,8.0,100,0.03,,,0.11,68.000000,,2013-04-18 05:52:00,
2013-04-17 20:22:00,66.0,66.0,-100.00,NNE,17,2.0,4.0,100,0.01,,,0.12,0.000000,,2013-04-18 06:22:00,
2013-04-17 20:32:00,66.0,66.0,-100.00,NNE,17,2.0,4.0,100,0.01,,,0.12,0.000000,,2013-04-18 06:32:00,
2013-04-17 20:42:00,66.0,66.0,-100.00,NNE,17,2.0,4.0,100,0.01,,,0.12,0.000000,,2013-04-18 06:42:00,
2013-04-17 20:52:00,66.0,66.0,-100.00,NNE,17,2.0,4.0,100,0.01,,,0.12,0.000000,,2013-04-18 06:52:00,
2013-04-17 21:22:00,65.0,65.0,-100.00,North,353,1.0,4.0,100,0.00,,,0.12,0.000000,,2013-04-18 07:22:00,
2013-04-17 21:32:00,65.0,65.0,-100.00,North,353,1.0,4.0,100,0.00,,,0.12,0.000000,,2013-04-18 07:32:00,
2013-04-17 21:42:00,65.0,65.0,-100.00,North,353,1.0,4.0,100,0.00,,,0.12,0.000000,,2013-04-18 07:42:00,
2013-04-17 21:52:00,65.0,65.0,-100.00,North,353,1.0,4.0,100,0.00,,,0.12,0.000000,,2013-04-18 07:52:00,
2013-04-17 22:22:00,67.0,66.0,-100.00,ENE,75,4.0,10.0,98,0.00,,,0.12,0.000000,,2013-04-18 08:22:00,
2013-04-17 22:32:00,67.0,66.0,-100.00,ENE,75,4.0,10.0,98,0.00,,,0.12,0.000000,,2013-04-18 08:32:00,
2013-04-17 22:42:00,67.0,66.0,-100.00,ENE,75,4.0,10.0,98,0.00,,,0.12,0.000000,,2013-04-18 08:42:00,
2013-04-17 22:52:00,67.0,66.0,-100.00,ENE,75,4.0,10.0,98,0.00,,,0.12,0.000000,,2013-04-18 08:52:00,
2013-04-17 23:22:00,66.0,64.0,-100.00,East,88,5.0,13.0,93,0.00,,,0.12,0.000000,,2013-04-18 09:22:00,
2013-04-17 23:32:00,66.0,64.0,-100.00,East,88,5.0,13.0,93,0.00,,,0.12,0.000000,,2013-04-18 09:32:00,
2013-04-17 23:42:00,66.0,64.0,-100.00,East,88,5.0,13.0,93,0.00,,,0.12,0.000000,,2013-04-18 09:42:00,
2013-04-17 23:52:00,66.0,64.0,-100.00,East,88,5.0,13.0,93,0.00,,,0.12,0.000000,,2013-04-18 09:52:00,